createdAt,value
2018-12-11T00:00:30.436Z,2.5
2018-12-11T00:01:37.363Z,2.5
2018-12-11T00:02:44.585Z,2.6
2018-12-11T00:03:51.784Z,2.6
2018-12-11T00:04:58.723Z,2.6
2018-12-11T00:06:05.923Z,2.6
2018-12-11T00:07:13.138Z,2.7
2018-12-11T00:08:20.335Z,2.7
2018-12-11T00:09:27.274Z,2.7
2018-12-11T00:10:34.467Z,2.7
2018-12-11T00:11:41.689Z,2.7
2018-12-11T00:12:48.883Z,2.7
2018-12-11T00:13:55.829Z,2.7
2018-12-11T00:15:03.032Z,2.7
2018-12-11T00:16:09.976Z,2.7
2018-12-11T00:17:17.173Z,2.7
2018-12-11T00:18:24.120Z,2.7
2018-12-11T00:19:31.320Z,2.6
2018-12-11T00:20:38.539Z,2.7
2018-12-11T00:21:45.743Z,2.7
2018-12-11T00:22:52.959Z,2.7
2018-12-11T00:24:00.159Z,2.7
2018-12-11T00:25:07.371Z,2.7
2018-12-11T00:26:14.571Z,2.7
2018-12-11T00:27:21.488Z,2.7
2018-12-11T00:28:28.680Z,2.7
2018-12-11T00:29:35.626Z,2.7
2018-12-11T00:30:42.822Z,2.7
2018-12-11T00:31:49.761Z,2.7
2018-12-11T00:32:56.961Z,2.7
2018-12-11T00:34:04.175Z,2.7
2018-12-11T00:35:11.374Z,2.7
2018-12-11T00:36:18.310Z,2.7
2018-12-11T00:37:25.514Z,2.7
2018-12-11T00:38:32.455Z,2.7
2018-12-11T00:39:39.655Z,2.7
2018-12-11T00:40:46.881Z,2.7
2018-12-11T00:41:54.091Z,2.6
2018-12-11T00:43:01.016Z,2.6
2018-12-11T00:44:08.218Z,2.6
2018-12-11T00:45:15.434Z,2.7
2018-12-11T00:46:22.632Z,2.6
2018-12-11T00:47:29.852Z,2.7
2018-12-11T00:48:37.050Z,2.7
2018-12-11T00:49:43.713Z,2.7
2018-12-11T00:50:50.646Z,2.7
2018-12-11T00:51:57.858Z,2.6
2018-12-11T00:53:05.062Z,2.6
2018-12-11T00:54:12.277Z,2.6
2018-12-11T00:55:19.474Z,2.7
2018-12-11T00:56:26.686Z,2.7
2018-12-11T00:57:33.887Z,2.7
2018-12-11T00:58:41.106Z,2.7
2018-12-11T00:59:48.037Z,2.7
2018-12-11T01:00:55.251Z,2.7
2018-12-11T01:02:02.460Z,2.7
2018-12-11T01:03:09.674Z,2.7
2018-12-11T01:04:16.876Z,2.8
2018-12-11T01:05:24.087Z,2.8
2018-12-11T01:06:31.288Z,2.8
2018-12-11T01:07:38.508Z,2.9
2018-12-11T01:08:45.712Z,2.9
2018-12-11T01:09:52.935Z,2.9
2018-12-11T01:10:59.867Z,2.9
2018-12-11T01:12:07.082Z,2.8
2018-12-11T01:13:14.015Z,2.8
2018-12-11T01:14:21.237Z,2.8
2018-12-11T01:15:28.436Z,2.7
2018-12-11T01:16:35.649Z,2.7
2018-12-11T01:17:42.863Z,2.7
2018-12-11T01:18:50.071Z,2.7
2018-12-11T01:19:57.000Z,2.7
2018-12-11T01:21:04.224Z,2.7
2018-12-11T01:22:11.160Z,2.7
2018-12-11T01:23:18.097Z,2.7
2018-12-11T01:24:25.298Z,2.7
2018-12-11T01:25:32.509Z,2.7
2018-12-11T01:26:39.707Z,2.7
2018-12-11T01:27:46.376Z,2.7
2018-12-11T01:28:53.583Z,2.7
2018-12-11T01:30:00.803Z,2.7
2018-12-11T01:31:08.006Z,2.7
2018-12-11T01:32:14.973Z,2.7
2018-12-11T01:33:22.187Z,2.7
2018-12-11T01:34:29.130Z,2.7
2018-12-11T01:35:36.336Z,2.7
2018-12-11T01:36:43.547Z,2.7
2018-12-11T01:37:50.485Z,2.7
2018-12-11T01:38:57.696Z,2.7
2018-12-11T01:40:04.894Z,2.7
2018-12-11T01:41:12.103Z,2.7
2018-12-11T01:42:19.305Z,2.7
2018-12-11T01:43:26.241Z,2.7
2018-12-11T01:44:33.435Z,2.7
2018-12-11T01:45:40.648Z,2.7
2018-12-11T01:46:47.891Z,2.7
2018-12-11T01:47:55.102Z,2.7
2018-12-11T01:49:02.300Z,2.7
2018-12-11T01:50:09.243Z,2.7
2018-12-11T01:51:16.443Z,2.7
2018-12-11T01:52:23.652Z,2.7
2018-12-11T01:53:30.855Z,2.7
2018-12-11T01:54:38.069Z,2.7
2018-12-11T01:55:44.717Z,2.7
2018-12-11T01:56:51.937Z,2.7
2018-12-11T01:57:59.130Z,2.6
2018-12-11T01:59:06.074Z,2.6
2018-12-11T02:00:12.993Z,2.6
2018-12-11T02:01:20.211Z,2.7
2018-12-11T02:02:27.135Z,2.7
2018-12-11T02:03:34.352Z,2.7
2018-12-11T02:04:41.547Z,2.6
2018-12-11T02:05:48.757Z,2.6
2018-12-11T02:06:55.956Z,2.6
2018-12-11T02:08:03.213Z,2.6
2018-12-11T02:09:10.413Z,2.6
2018-12-11T02:10:17.630Z,2.6
2018-12-11T02:11:24.563Z,2.6
2018-12-11T02:12:31.781Z,2.5
2018-12-11T02:13:38.704Z,2.5
2018-12-11T02:14:45.917Z,2.6
2018-12-11T02:15:53.121Z,2.6
2018-12-11T02:16:59.780Z,2.6
2018-12-11T02:18:06.978Z,2.6
2018-12-11T02:19:14.192Z,2.6
2018-12-11T02:20:21.386Z,2.5
2018-12-11T02:21:28.326Z,2.5
2018-12-11T02:22:34.981Z,2.5
2018-12-11T02:23:42.192Z,2.5
2018-12-11T02:24:49.390Z,2.5
2018-12-11T02:25:56.604Z,2.5
2018-12-11T02:27:03.801Z,2.5
2018-12-11T02:28:11.018Z,2.5
2018-12-11T02:29:18.225Z,2.5
2018-12-11T02:30:25.442Z,2.5
2018-12-11T02:31:32.700Z,2.4
2018-12-11T02:32:39.922Z,2.4
2018-12-11T02:33:47.125Z,2.4
2018-12-11T02:34:54.078Z,2.4
2018-12-11T02:36:01.274Z,2.4
2018-12-11T02:37:08.499Z,2.4
2018-12-11T02:38:15.688Z,2.4
2018-12-11T02:39:22.905Z,2.4
2018-12-11T02:40:30.177Z,2.4
2018-12-11T02:41:37.124Z,2.4
2018-12-11T02:42:44.316Z,2.4
2018-12-11T02:43:51.565Z,2.3
2018-12-11T02:44:58.578Z,2.4
2018-12-11T02:46:05.786Z,2.4
2018-12-11T02:47:12.993Z,2.4
2018-12-11T02:48:19.928Z,2.4
2018-12-11T02:49:26.857Z,2.4
2018-12-11T02:50:34.070Z,2.4
2018-12-11T02:51:41.272Z,2.4
2018-12-11T02:52:48.484Z,2.4
2018-12-11T02:53:55.411Z,2.5
2018-12-11T02:55:02.617Z,2.5
2018-12-11T02:56:09.539Z,2.5
2018-12-11T02:57:16.757Z,2.5
2018-12-11T02:58:23.954Z,2.5
2018-12-11T02:59:31.164Z,2.5
2018-12-11T03:00:38.081Z,2.5
2018-12-11T03:01:45.297Z,2.5
2018-12-11T03:02:52.495Z,2.5
2018-12-11T03:03:59.442Z,2.5
2018-12-11T03:05:06.651Z,2.4
2018-12-11T03:06:13.859Z,2.4
2018-12-11T03:07:21.060Z,2.4
2018-12-11T03:08:28.273Z,2.4
2018-12-11T03:09:35.202Z,2.4
2018-12-11T03:10:42.151Z,2.4
2018-12-11T03:11:49.041Z,2.4
2018-12-11T03:12:56.258Z,2.4
2018-12-11T03:14:03.468Z,2.4
2018-12-11T03:15:10.659Z,2.4
2018-12-11T03:16:17.311Z,2.3
2018-12-11T03:17:24.532Z,2.3
2018-12-11T03:18:31.731Z,2.4
2018-12-11T03:19:38.678Z,2.4
2018-12-11T03:20:45.611Z,2.3
2018-12-11T03:21:52.830Z,2.3
2018-12-11T03:22:59.751Z,2.4
2018-12-11T03:24:06.950Z,2.4
2018-12-11T03:25:13.879Z,2.4
2018-12-11T03:26:21.092Z,2.4
2018-12-11T03:27:28.321Z,2.4
2018-12-11T03:28:35.607Z,2.3
2018-12-11T03:29:42.810Z,2.3
2018-12-11T03:30:50.059Z,2.2
2018-12-11T03:31:57.258Z,2.2
2018-12-11T03:33:04.461Z,2.2
2018-12-11T03:34:11.668Z,2.2
2018-12-11T03:35:18.878Z,2.2
2018-12-11T03:36:26.074Z,2.2
2018-12-11T03:37:33.014Z,2.2
2018-12-11T03:38:40.212Z,2.2
2018-12-11T03:39:47.425Z,2.2
2018-12-11T03:40:54.629Z,2.2
2018-12-11T03:42:01.829Z,2.2
2018-12-11T03:43:08.756Z,2.2
2018-12-11T03:44:15.967Z,2.2
2018-12-11T03:45:23.163Z,2.2
2018-12-11T03:46:30.387Z,2.2
2018-12-11T03:47:37.591Z,2.2
2018-12-11T03:48:44.617Z,2.2
2018-12-11T03:49:51.814Z,2.3
2018-12-11T03:50:59.017Z,2.3
2018-12-11T03:52:05.949Z,2.3
2018-12-11T03:53:12.609Z,2.3
2018-12-11T03:54:19.535Z,2.3
2018-12-11T03:55:26.747Z,2.3
2018-12-11T03:56:33.957Z,2.3
2018-12-11T03:57:41.189Z,2.3
2018-12-11T03:58:48.399Z,2.3
2018-12-11T03:59:55.602Z,2.3
2018-12-11T04:01:02.796Z,2.3
2018-12-11T04:02:09.739Z,2.3
2018-12-11T04:03:16.942Z,2.3
2018-12-11T04:04:24.156Z,2.3
2018-12-11T04:05:31.355Z,2.3
2018-12-11T04:06:38.570Z,2.2
2018-12-11T04:07:45.771Z,2.3
2018-12-11T04:08:52.703Z,2.3
2018-12-11T04:09:59.895Z,2.2
2018-12-11T04:11:07.112Z,2.3
2018-12-11T04:12:14.315Z,2.3
2018-12-11T04:13:21.534Z,2.2
2018-12-11T04:14:28.733Z,2.3
2018-12-11T04:15:35.947Z,2.3
2018-12-11T04:16:42.600Z,2.3
2018-12-11T04:17:49.537Z,2.3
2018-12-11T04:18:56.741Z,2.3
2018-12-11T04:20:03.691Z,2.3
2018-12-11T04:21:10.888Z,2.3
2018-12-11T04:22:17.836Z,2.3
2018-12-11T04:23:25.038Z,2.3
2018-12-11T04:24:32.261Z,2.3
2018-12-11T04:25:39.194Z,2.4
2018-12-11T04:26:46.405Z,2.3
2018-12-11T04:27:53.649Z,2.4
2018-12-11T04:29:00.866Z,2.4
2018-12-11T04:30:08.066Z,2.4
2018-12-11T04:31:14.727Z,2.4
2018-12-11T04:32:21.923Z,2.5
2018-12-11T04:33:28.581Z,2.4
2018-12-11T04:34:35.505Z,2.4
2018-12-11T04:35:42.717Z,2.4
2018-12-11T04:36:51.577Z,2.4
2018-12-11T04:37:58.789Z,2.4
2018-12-11T04:39:05.712Z,2.4
2018-12-11T04:40:12.924Z,2.4
2018-12-11T04:41:20.121Z,2.4
2018-12-11T04:42:27.072Z,2.5
2018-12-11T04:43:33.998Z,2.5
2018-12-11T04:44:40.667Z,2.5
2018-12-11T04:45:47.867Z,2.5
2018-12-11T04:46:55.077Z,2.5
2018-12-11T04:48:02.282Z,2.5
2018-12-11T04:49:09.487Z,2.5
2018-12-11T04:50:16.417Z,2.6
2018-12-11T04:51:23.365Z,2.6
2018-12-11T04:52:29.751Z,2.5
2018-12-11T04:53:36.691Z,2.5
2018-12-11T04:54:43.893Z,2.5
2018-12-11T04:55:51.106Z,2.5
2018-12-11T04:56:58.306Z,2.6
2018-12-11T04:58:05.514Z,2.6
2018-12-11T04:59:12.719Z,2.5
2018-12-11T05:00:19.928Z,2.6
2018-12-11T05:01:27.133Z,2.5
2018-12-11T05:02:33.528Z,2.5
2018-12-11T05:03:40.727Z,2.6
2018-12-11T05:04:47.934Z,2.6
2018-12-11T05:05:55.128Z,2.6
2018-12-11T05:07:02.070Z,2.5
2018-12-11T05:08:09.266Z,2.5
2018-12-11T05:09:16.465Z,2.5
2018-12-11T05:10:23.401Z,2.6
2018-12-11T05:11:30.613Z,2.6
2018-12-11T05:12:37.550Z,2.5
2018-12-11T05:13:44.496Z,2.5
2018-12-11T05:14:51.699Z,2.6
2018-12-11T05:15:58.906Z,2.6
2018-12-11T05:17:05.833Z,2.6
2018-12-11T05:18:12.760Z,2.6
2018-12-11T05:19:19.957Z,2.6
2018-12-11T05:20:27.167Z,2.6
2018-12-11T05:21:34.369Z,2.6
2018-12-11T05:22:41.588Z,2.5
2018-12-11T05:23:48.789Z,2.6
2018-12-11T05:24:56.002Z,2.6
2018-12-11T05:26:03.204Z,2.5
2018-12-11T05:27:10.404Z,2.5
2018-12-11T05:28:17.598Z,2.5
2018-12-11T05:29:24.536Z,2.5
2018-12-11T05:30:31.472Z,2.5
2018-12-11T05:31:38.415Z,2.5
2018-12-11T05:32:45.616Z,2.5
2018-12-11T05:33:52.834Z,2.5
2018-12-11T05:34:59.491Z,2.5
2018-12-11T05:36:06.701Z,2.5
2018-12-11T05:37:13.355Z,2.5
2018-12-11T05:38:20.581Z,2.5
2018-12-11T05:39:27.500Z,2.4
2018-12-11T05:40:34.452Z,2.4
2018-12-11T05:41:41.693Z,2.4
2018-12-11T05:42:48.884Z,2.4
2018-12-11T05:43:55.508Z,2.5
2018-12-11T05:45:02.455Z,2.5
2018-12-11T05:46:09.654Z,2.5
2018-12-11T05:47:16.859Z,2.5
2018-12-11T05:48:24.051Z,2.5
2018-12-11T05:49:31.269Z,2.5
2018-12-11T05:50:38.471Z,2.5
2018-12-11T05:51:45.683Z,2.5
2018-12-11T05:52:52.884Z,2.5
2018-12-11T05:54:00.100Z,2.5
2018-12-11T05:55:07.332Z,2.5
2018-12-11T05:56:14.530Z,2.4
2018-12-11T05:57:21.730Z,2.5
2018-12-11T05:58:28.944Z,2.5
2018-12-11T05:59:36.143Z,2.5
2018-12-11T06:00:43.088Z,2.5
2018-12-11T06:01:50.298Z,2.5
2018-12-11T06:02:57.516Z,2.6
2018-12-11T06:04:04.717Z,2.6
2018-12-11T06:05:11.381Z,2.6
2018-12-11T06:06:18.594Z,2.6
2018-12-11T06:07:25.812Z,2.6
2018-12-11T06:08:32.736Z,2.6
2018-12-11T06:09:39.943Z,2.6
2018-12-11T06:10:47.146Z,2.6
2018-12-11T06:11:54.359Z,2.6
2018-12-11T06:13:01.559Z,2.6
2018-12-11T06:14:08.771Z,2.6
2018-12-11T06:15:15.980Z,2.6
2018-12-11T06:16:23.195Z,2.6
2018-12-11T06:17:30.409Z,2.6
2018-12-11T06:18:37.348Z,2.6
2018-12-11T06:19:44.548Z,2.6
2018-12-11T06:20:51.493Z,2.6
2018-12-11T06:21:58.694Z,2.6
2018-12-11T06:23:05.620Z,2.6
2018-12-11T06:24:12.544Z,2.6
2018-12-11T06:25:19.762Z,2.6
2018-12-11T06:26:27.015Z,2.5
2018-12-11T06:27:34.228Z,2.6
2018-12-11T06:28:41.429Z,2.6
2018-12-11T06:29:48.374Z,2.6
2018-12-11T06:30:55.572Z,2.6
2018-12-11T06:32:02.772Z,2.6
2018-12-11T06:33:09.973Z,2.6
2018-12-11T06:34:17.179Z,2.6
2018-12-11T06:35:24.699Z,2.5
2018-12-11T06:36:31.935Z,2.6
2018-12-11T06:37:39.282Z,2.6
2018-12-11T06:38:46.495Z,2.6
2018-12-11T06:39:53.425Z,2.6
2018-12-11T06:41:00.639Z,2.6
2018-12-11T06:42:07.839Z,2.6
2018-12-11T06:43:14.828Z,2.7
2018-12-11T06:44:21.759Z,2.6
2018-12-11T06:45:28.963Z,2.6
2018-12-11T06:46:35.893Z,2.6
2018-12-11T06:47:43.120Z,2.7
2018-12-11T06:48:50.305Z,2.7
2018-12-11T06:49:57.521Z,2.7
2018-12-11T06:51:04.722Z,2.7
2018-12-11T06:52:11.943Z,2.8
2018-12-11T06:53:19.149Z,2.7
2018-12-11T06:54:26.374Z,2.8
2018-12-11T06:55:33.587Z,2.7
2018-12-11T06:56:40.805Z,2.7
2018-12-11T06:57:48.011Z,2.7
2018-12-11T06:58:55.236Z,2.7
2018-12-11T07:00:02.444Z,2.7
2018-12-11T07:01:09.377Z,2.7
2018-12-11T07:02:16.299Z,2.7
2018-12-11T07:03:23.501Z,2.7
2018-12-11T07:04:30.433Z,2.7
2018-12-11T07:05:37.652Z,2.7
2018-12-11T07:06:44.336Z,2.7
2018-12-11T07:07:51.546Z,2.7
2018-12-11T07:08:58.748Z,2.6
2018-12-11T07:10:05.962Z,2.7
2018-12-11T07:11:13.166Z,2.7
2018-12-11T07:12:20.096Z,2.7
2018-12-11T07:13:27.295Z,2.7
2018-12-11T07:14:34.560Z,2.7
2018-12-11T07:15:41.760Z,2.7
2018-12-11T07:16:48.979Z,2.7
2018-12-11T07:17:56.186Z,2.7
2018-12-11T07:19:03.403Z,2.7
2018-12-11T07:20:10.335Z,2.7
2018-12-11T07:21:17.545Z,2.7
2018-12-11T07:22:24.751Z,2.7
2018-12-11T07:23:31.972Z,2.7
2018-12-11T07:24:39.190Z,2.7
2018-12-11T07:25:46.400Z,2.7
2018-12-11T07:26:53.606Z,2.7
2018-12-11T07:28:00.830Z,2.8
2018-12-11T07:29:08.028Z,2.8
2018-12-11T07:30:15.232Z,2.7
2018-12-11T07:31:22.438Z,2.8
2018-12-11T07:32:29.652Z,2.8
2018-12-11T07:33:36.894Z,2.8
2018-12-11T07:34:43.828Z,2.8
2018-12-11T07:35:51.138Z,2.8
2018-12-11T07:36:58.354Z,2.8
2018-12-11T07:38:05.556Z,2.8
2018-12-11T07:39:12.753Z,2.8
2018-12-11T07:40:19.953Z,2.8
2018-12-11T07:41:27.151Z,2.8
2018-12-11T07:42:34.077Z,2.8
2018-12-11T07:43:41.295Z,2.9
2018-12-11T07:44:48.226Z,2.8
2018-12-11T07:45:55.445Z,2.9
2018-12-11T07:47:02.648Z,2.9
2018-12-11T07:48:09.864Z,2.9
2018-12-11T07:49:17.072Z,2.9
2018-12-11T07:50:24.281Z,2.9
2018-12-11T07:51:31.207Z,2.9
2018-12-11T07:52:38.422Z,2.9
2018-12-11T07:53:45.357Z,2.9
2018-12-11T07:54:52.345Z,2.9
2018-12-11T07:56:00.916Z,2.9
2018-12-11T07:57:07.870Z,2.9
2018-12-11T07:58:15.089Z,2.9
2018-12-11T07:59:22.287Z,2.9
2018-12-11T08:00:29.006Z,2.9
2018-12-11T08:01:36.223Z,2.9
2018-12-11T08:02:43.425Z,2.9
2018-12-11T08:03:50.642Z,2.9
2018-12-11T08:04:57.846Z,2.9
2018-12-11T08:06:04.810Z,2.9
2018-12-11T08:07:12.018Z,2.9
2018-12-11T08:08:19.224Z,2.9
2018-12-11T08:09:26.439Z,2.9
2018-12-11T08:10:33.656Z,3
2018-12-11T08:11:40.864Z,3
2018-12-11T08:12:48.085Z,3
2018-12-11T08:13:55.290Z,3
2018-12-11T08:15:02.239Z,3
2018-12-11T08:16:09.437Z,3
2018-12-11T08:17:16.633Z,3
2018-12-11T08:18:23.857Z,3
2018-12-11T08:19:31.078Z,3
2018-12-11T08:20:38.285Z,3
2018-12-11T08:22:00.152Z,3
2018-12-11T08:23:07.090Z,3
2018-12-11T08:24:14.310Z,3.1
2018-12-11T08:25:21.521Z,3
2018-12-11T08:26:28.459Z,3
2018-12-11T08:27:35.653Z,3
2018-12-11T08:28:42.872Z,3.1
2018-12-11T08:29:50.071Z,3.1
2018-12-11T08:30:57.293Z,3.1
2018-12-11T08:32:04.492Z,3.1
2018-12-11T08:33:11.710Z,3.1
2018-12-11T08:34:18.914Z,3.2
2018-12-11T08:35:26.109Z,3.2
2018-12-11T08:36:33.311Z,3.2
2018-12-11T08:37:40.531Z,3.2
2018-12-11T08:38:47.741Z,3.2
2018-12-11T08:39:54.406Z,3.2
2018-12-11T08:41:01.616Z,3.2
2018-12-11T08:42:08.831Z,3.2
2018-12-11T08:43:16.036Z,3.2
2018-12-11T08:44:23.242Z,3.3
2018-12-11T08:45:30.443Z,3.2
2018-12-11T08:46:37.389Z,3.3
2018-12-11T08:47:44.599Z,3.3
2018-12-11T08:48:51.542Z,3.3
2018-12-11T08:49:58.742Z,3.3
2018-12-11T08:51:05.679Z,3.3
2018-12-11T08:52:12.887Z,3.3
2018-12-11T08:53:20.088Z,3.3
2018-12-11T08:54:27.285Z,3.3
2018-12-11T08:55:34.499Z,3.3
2018-12-11T08:56:41.698Z,3.3
2018-12-11T08:57:48.919Z,3.3
2018-12-11T08:58:56.129Z,3.3
2018-12-11T09:00:03.347Z,3.3
2018-12-11T09:01:10.555Z,3.4
2018-12-11T09:02:17.752Z,3.4
2018-12-11T09:03:24.958Z,3.4
2018-12-11T09:04:31.910Z,3.4
2018-12-11T09:05:39.112Z,3.4
2018-12-11T09:06:46.334Z,3.4
2018-12-11T09:07:53.537Z,3.4
2018-12-11T09:09:00.483Z,3.4
2018-12-11T09:10:07.417Z,3.4
2018-12-11T09:11:14.619Z,3.4
2018-12-11T09:12:21.832Z,3.3
2018-12-11T09:13:28.781Z,3.4
2018-12-11T09:14:35.431Z,3.3
2018-12-11T09:15:42.655Z,3.4
2018-12-11T09:16:49.574Z,3.4
2018-12-11T09:17:56.822Z,3.4
2018-12-11T09:19:04.041Z,3.5
2018-12-11T09:20:11.253Z,3.6
2018-12-11T09:21:18.448Z,3.7
2018-12-11T09:22:25.665Z,3.8
2018-12-11T09:23:32.872Z,3.8
2018-12-11T09:24:40.078Z,3.8
2018-12-11T09:25:47.282Z,3.8
2018-12-11T09:26:54.494Z,3.9
2018-12-11T09:28:01.700Z,4
2018-12-11T09:29:08.928Z,4.1
2018-12-11T09:30:15.588Z,4.1
2018-12-11T09:31:22.804Z,4.1
2018-12-11T09:32:29.733Z,4
2018-12-11T09:33:36.938Z,4
2018-12-11T09:34:43.887Z,3.9
2018-12-11T09:35:51.108Z,3.9
2018-12-11T09:36:58.049Z,3.9
2018-12-11T09:38:05.265Z,3.9
2018-12-11T09:39:12.469Z,3.9
2018-12-11T09:40:25.062Z,4
2018-12-11T09:41:32.253Z,4
2018-12-11T09:42:39.458Z,4
2018-12-11T09:43:46.664Z,4
2018-12-11T09:44:53.877Z,4.1
2018-12-11T09:46:01.079Z,4.1
2018-12-11T09:47:08.027Z,4.1
2018-12-11T09:48:15.234Z,4.1
2018-12-11T09:49:22.449Z,4.2
2018-12-11T09:50:29.655Z,4.2
2018-12-11T09:51:36.862Z,4.2
2018-12-11T09:52:44.067Z,4.1
2018-12-11T09:53:51.278Z,4.1
2018-12-11T09:54:58.205Z,4.1
2018-12-11T09:56:05.427Z,4.1
2018-12-11T09:57:12.359Z,4.1
2018-12-11T09:58:19.294Z,4.1
2018-12-11T09:59:26.493Z,4.1
2018-12-11T10:00:33.881Z,4.2
2018-12-11T10:01:41.205Z,4.2
2018-12-11T10:02:48.150Z,4.2
2018-12-11T10:03:55.353Z,4.2
2018-12-11T10:05:02.314Z,4.2
2018-12-11T10:06:09.520Z,4.2
2018-12-11T10:07:16.465Z,4.2
2018-12-11T10:08:23.682Z,4.2
2018-12-11T10:09:30.614Z,4.2
2018-12-11T10:10:37.815Z,4.2
2018-12-11T10:11:45.036Z,4.1
2018-12-11T10:12:51.970Z,4.1
2018-12-11T10:13:58.909Z,4.1
2018-12-11T10:15:06.106Z,4.1
2018-12-11T10:16:13.051Z,4.1
2018-12-11T10:17:20.250Z,4.1
2018-12-11T10:18:27.450Z,4.1
2018-12-11T10:19:34.653Z,4.1
2018-12-11T10:20:41.600Z,4.1
2018-12-11T10:21:48.530Z,4.1
2018-12-11T10:22:55.738Z,4.1
2018-12-11T10:24:02.677Z,4.1
2018-12-11T10:25:09.620Z,4.1
2018-12-11T10:26:16.829Z,4.1
2018-12-11T10:27:24.053Z,4.1
2018-12-11T10:28:30.980Z,4.1
2018-12-11T10:29:37.904Z,4.1
2018-12-11T10:30:44.840Z,4.2
2018-12-11T10:31:52.059Z,4.2
2018-12-11T10:32:58.996Z,4.1
2018-12-11T10:34:06.214Z,4.2
2018-12-11T10:35:13.419Z,4.2
2018-12-11T10:36:20.635Z,4.2
2018-12-11T10:37:27.841Z,4.3
2018-12-11T10:38:35.039Z,4.3
2018-12-11T10:39:42.243Z,4.3
2018-12-11T10:40:48.902Z,4.3
2018-12-11T10:41:56.107Z,4.3
2018-12-11T10:43:03.061Z,4.3
2018-12-11T10:44:10.266Z,4.3
2018-12-11T10:45:17.220Z,4.3
2018-12-11T10:46:24.422Z,4.3
2018-12-11T10:47:31.627Z,4.3
2018-12-11T10:48:38.561Z,4.3
2018-12-11T10:49:45.505Z,4.4
2018-12-11T10:50:52.704Z,4.3
2018-12-11T10:51:59.916Z,4.4
2018-12-11T10:53:07.121Z,4.3
2018-12-11T10:54:14.334Z,4.3
2018-12-11T10:55:21.536Z,4.4
2018-12-11T10:56:28.743Z,4.4
2018-12-11T10:57:35.944Z,4.4
2018-12-11T10:58:43.151Z,4.4
2018-12-11T10:59:50.356Z,4.4
2018-12-11T11:00:57.303Z,4.4
2018-12-11T11:02:04.510Z,4.4
2018-12-11T11:03:11.448Z,4.4
2018-12-11T11:04:18.664Z,4.4
2018-12-11T11:05:25.849Z,4.4
2018-12-11T11:06:32.503Z,4.5
2018-12-11T11:07:39.731Z,4.5
2018-12-11T11:08:47.187Z,4.5
2018-12-11T11:09:54.395Z,4.6
2018-12-11T11:11:01.595Z,4.6
2018-12-11T11:12:08.826Z,4.5
2018-12-11T11:13:15.768Z,4.5
2018-12-11T11:14:22.772Z,4.5
2018-12-11T11:15:31.269Z,4.5
2018-12-11T11:16:38.483Z,4.5
2018-12-11T11:17:45.688Z,4.5
2018-12-11T11:18:52.904Z,4.4
2018-12-11T11:20:00.157Z,4.4
2018-12-11T11:21:07.370Z,4.4
2018-12-11T11:22:14.574Z,4.5
2018-12-11T11:23:21.515Z,4.4
2018-12-11T11:24:28.444Z,4.4
2018-12-11T11:25:35.390Z,4.4
2018-12-11T11:26:42.607Z,4.5
2018-12-11T11:27:49.802Z,4.4
2018-12-11T11:28:57.001Z,4.5
2018-12-11T11:30:04.219Z,4.4
2018-12-11T11:31:11.426Z,4.4
2018-12-11T11:32:18.644Z,4.4
2018-12-11T11:33:25.571Z,4.4
2018-12-11T11:34:32.796Z,4.4
2018-12-11T11:35:39.484Z,4.4
2018-12-11T11:36:46.414Z,4.4
2018-12-11T11:37:53.619Z,4.4
2018-12-11T11:39:00.836Z,4.4
2018-12-11T11:40:08.046Z,4.4
2018-12-11T11:41:15.267Z,4.4
2018-12-11T11:42:22.472Z,4.4
2018-12-11T11:43:29.418Z,4.4
2018-12-11T11:44:36.368Z,4.4
2018-12-11T11:45:43.576Z,4.4
2018-12-11T11:46:50.785Z,4.4
2018-12-11T11:47:57.732Z,4.4
2018-12-11T11:49:04.937Z,4.4
2018-12-11T11:50:11.605Z,4.5
2018-12-11T11:51:18.808Z,4.5
2018-12-11T11:52:26.019Z,4.4
2018-12-11T11:53:33.232Z,4.4
2018-12-11T11:54:40.438Z,4.4
2018-12-11T11:55:47.360Z,4.4
2018-12-11T11:56:54.584Z,4.4
2018-12-11T11:58:01.788Z,4.4
2018-12-11T11:59:09.002Z,4.4
2018-12-11T12:00:16.239Z,4.5
2018-12-11T12:01:23.446Z,4.5
2018-12-11T12:02:34.033Z,4.4
2018-12-11T12:03:41.234Z,4.4
2018-12-11T12:04:48.435Z,4.3
2018-12-11T12:05:55.653Z,4.3
2018-12-11T12:07:02.855Z,4.4
2018-12-11T12:08:10.075Z,4.5
2018-12-11T12:09:17.286Z,4.4
2018-12-11T12:10:24.503Z,4.4
2018-12-11T12:11:31.433Z,4.4
2018-12-11T12:12:38.640Z,4.5
2018-12-11T12:13:45.574Z,4.5
2018-12-11T12:14:52.790Z,4.6
2018-12-11T12:15:59.997Z,4.7
2018-12-11T12:17:07.209Z,4.8
2018-12-11T12:18:14.135Z,5
2018-12-11T12:19:21.369Z,5.2
2018-12-11T12:20:28.569Z,5.2
2018-12-11T12:21:35.502Z,5.1
2018-12-11T12:22:42.430Z,5
2018-12-11T12:23:49.635Z,4.9
2018-12-11T12:24:56.835Z,4.8
2018-12-11T12:26:03.783Z,4.9
2018-12-11T12:27:11.010Z,5
2018-12-11T12:28:18.228Z,5.1
2018-12-11T12:29:25.432Z,5.1
2018-12-11T12:30:32.656Z,5
2018-12-11T12:31:39.860Z,4.9
2018-12-11T12:32:47.063Z,4.8
2018-12-11T12:33:54.003Z,4.7
2018-12-11T12:35:01.223Z,4.7
2018-12-11T12:36:08.426Z,4.7
2018-12-11T12:37:15.647Z,4.7
2018-12-11T12:38:22.856Z,4.6
2018-12-11T12:39:29.811Z,4.6
2018-12-11T12:40:37.009Z,4.5
2018-12-11T12:41:44.219Z,4.5
2018-12-11T12:42:51.161Z,4.3
2018-12-11T12:43:58.375Z,4.2
2018-12-11T12:45:05.034Z,4.1
2018-12-11T12:46:12.272Z,4
2018-12-11T12:47:19.479Z,4
2018-12-11T12:48:26.701Z,4
2018-12-11T12:49:33.907Z,3.9
2018-12-11T12:50:40.829Z,3.9
2018-12-11T12:51:48.035Z,3.9
2018-12-11T12:52:54.978Z,3.8
2018-12-11T12:54:02.178Z,3.8
2018-12-11T12:55:09.182Z,3.8
2018-12-11T12:56:16.393Z,3.8
2018-12-11T12:57:23.617Z,3.8
2018-12-11T12:58:30.824Z,3.7
2018-12-11T12:59:38.058Z,3.8
2018-12-11T13:00:45.334Z,3.8
2018-12-11T13:01:52.282Z,3.7
2018-12-11T13:03:00.602Z,3.8
2018-12-11T13:04:07.832Z,3.8
2018-12-11T13:05:15.033Z,4
2018-12-11T13:06:22.248Z,4
2018-12-11T13:07:28.906Z,4
2018-12-11T13:08:35.840Z,4.2
2018-12-11T13:09:43.043Z,4.3
2018-12-11T13:10:50.262Z,4.4
2018-12-11T13:11:57.466Z,4.5
2018-12-11T13:13:03.864Z,4.4
2018-12-11T13:14:11.070Z,4.5
2018-12-11T13:15:18.013Z,4.6
2018-12-11T13:16:25.217Z,4.7
2018-12-11T13:17:31.878Z,4.6
2018-12-11T13:18:39.090Z,4.5
2018-12-11T13:19:46.035Z,4.4
2018-12-11T13:20:52.958Z,4.4
2018-12-11T13:22:00.172Z,4.3
2018-12-11T13:23:07.374Z,4.4
2018-12-11T13:24:14.598Z,4.5
2018-12-11T13:25:21.798Z,4.5
2018-12-11T13:26:28.754Z,4.6
2018-12-11T13:27:35.702Z,4.8
2018-12-11T13:28:42.919Z,4.9
2018-12-11T13:29:50.118Z,4.9
2018-12-11T13:30:57.060Z,5
2018-12-11T13:32:04.252Z,5.1
2018-12-11T13:33:10.931Z,5.1
2018-12-11T13:34:17.901Z,5.2
2018-12-11T13:35:24.845Z,5.3
2018-12-11T13:36:32.734Z,5.5
2018-12-11T13:37:40.007Z,5.7
2018-12-11T13:38:47.215Z,5.6
2018-12-11T13:39:53.964Z,5.7
2018-12-11T13:41:01.160Z,5.9
2018-12-11T13:42:08.165Z,6
2018-12-11T13:43:15.087Z,5.9
2018-12-11T13:44:22.312Z,5.7
2018-12-11T13:45:29.563Z,5.5
2018-12-11T13:46:36.920Z,5.3
2018-12-11T13:47:44.431Z,5.3
2018-12-11T13:48:51.636Z,5.3
2018-12-11T13:49:58.835Z,5.3
2018-12-11T13:51:06.053Z,5.2
2018-12-11T13:52:12.992Z,5.1
2018-12-11T13:53:20.207Z,5.1
2018-12-11T13:54:27.421Z,5
2018-12-11T13:55:34.641Z,5.1
2018-12-11T13:56:41.841Z,5.1
2018-12-11T13:57:49.049Z,5.1
2018-12-11T13:58:55.985Z,5
2018-12-11T14:00:03.202Z,4.9
2018-12-11T14:01:10.411Z,4.9
2018-12-11T14:02:17.352Z,4.8
2018-12-11T14:03:24.553Z,4.8
2018-12-11T14:04:31.782Z,4.8
2018-12-11T14:05:38.987Z,4.7
2018-12-11T14:06:46.190Z,4.7
2018-12-11T14:07:53.118Z,4.7
2018-12-11T14:09:00.334Z,4.6
2018-12-11T14:10:07.540Z,4.6
2018-12-11T14:11:14.563Z,4.6
2018-12-11T14:12:21.766Z,4.6
2018-12-11T14:13:28.993Z,4.6
2018-12-11T14:14:35.991Z,4.6
2018-12-11T14:15:43.205Z,4.5
2018-12-11T14:16:50.472Z,4.5
2018-12-11T14:17:59.184Z,4.5
2018-12-11T14:19:06.391Z,4.5
2018-12-11T14:20:13.337Z,4.4
2018-12-11T14:21:20.585Z,4.4
2018-12-11T14:22:27.809Z,4.4
2018-12-11T14:23:34.769Z,4.4
2018-12-11T14:24:41.970Z,4.4
2018-12-11T14:25:48.992Z,4.4
2018-12-11T14:26:55.918Z,4.4
2018-12-11T14:28:03.125Z,4.3
2018-12-11T14:29:10.350Z,4.3
2018-12-11T14:30:17.555Z,4.3
2018-12-11T14:31:24.775Z,4.3
2018-12-11T14:32:31.984Z,4.2
2018-12-11T14:33:38.933Z,4.2
2018-12-11T14:34:45.878Z,4.2
2018-12-11T14:35:53.087Z,4.2
2018-12-11T14:37:00.298Z,4.2
2018-12-11T14:38:07.521Z,4.1
2018-12-11T14:39:14.447Z,4.1
2018-12-11T14:40:21.667Z,4.1
2018-12-11T14:41:28.341Z,4.1
2018-12-11T14:42:35.288Z,4.1
2018-12-11T14:43:42.486Z,4.1
2018-12-11T14:44:49.694Z,4.1
2018-12-11T14:45:56.916Z,4.1
2018-12-11T14:47:03.844Z,4.1
2018-12-11T14:48:11.049Z,4.1
2018-12-11T14:49:18.263Z,4.1
2018-12-11T14:50:25.466Z,4.1
2018-12-11T14:51:32.692Z,4.1
2018-12-11T14:52:39.909Z,4.1
2018-12-11T14:53:47.108Z,4.1
2018-12-11T14:54:54.303Z,4.1
2018-12-11T14:56:01.528Z,4.1
2018-12-11T14:57:08.732Z,4.1
2018-12-11T14:58:15.715Z,4
2018-12-11T14:59:22.995Z,4
2018-12-11T15:00:29.932Z,4
2018-12-11T15:01:37.131Z,4
2018-12-11T15:02:44.116Z,4
2018-12-11T15:03:51.325Z,4
2018-12-11T15:04:58.553Z,3.9
2018-12-11T15:06:05.754Z,3.9
2018-12-11T15:07:12.709Z,3.9
2018-12-11T15:08:19.916Z,3.9
2018-12-11T15:09:27.139Z,3.9
2018-12-11T15:10:34.342Z,3.8
2018-12-11T15:11:41.270Z,3.8
2018-12-11T15:12:48.477Z,3.8
2018-12-11T15:13:55.432Z,3.8
2018-12-11T15:15:02.631Z,3.8
2018-12-11T15:16:09.849Z,3.8
2018-12-11T15:17:16.785Z,3.7
2018-12-11T15:18:24.005Z,3.7
2018-12-11T15:19:31.207Z,3.7
2018-12-11T15:20:38.426Z,3.6
2018-12-11T15:21:45.633Z,3.7
2018-12-11T15:22:52.575Z,3.6
2018-12-11T15:23:59.784Z,3.6
2018-12-11T15:25:06.985Z,3.6
2018-12-11T15:26:13.913Z,3.6
2018-12-11T15:27:20.850Z,3.5